sensor_id;sensor_type;location;lat;lon;timestamp;pressure;altitude;pressure_sealevel;temperature;humidity
78123;BME280;67376;44.802;10.332;2023-01-28T10:28:26;101471.41;;;17.41;43.99
78123;BME280;67376;44.802;10.332;2023-01-28T10:30:52;101468.06;;;17.39;43.99
78123;BME280;67376;44.802;10.332;2023-01-28T10:33:30;101475.72;;;17.36;44.48
78123;BME280;67376;44.802;10.332;2023-01-28T10:35:59;101475.53;;;17.37;44.32
78123;BME280;67376;44.802;10.332;2023-01-28T10:38:26;101471.16;;;17.36;44.86
78123;BME280;67376;44.802;10.332;2023-01-28T10:40:54;101465.75;;;17.36;44.52
78123;BME280;67376;44.802;10.332;2023-01-28T10:43:24;101463.25;;;17.35;43.72
78123;BME280;67376;44.802;10.332;2023-01-28T10:46:02;101458.50;;;17.37;44.14
78123;BME280;67376;44.802;10.332;2023-01-28T10:48:32;101459.97;;;17.33;44.71
78123;BME280;67376;44.802;10.332;2023-01-28T10:51:00;101462.22;;;17.36;43.75
78123;BME280;67376;44.802;10.332;2023-01-28T10:53:41;101454.56;;;17.33;44.86
78123;BME280;67376;44.802;10.332;2023-01-28T10:56:15;101454.97;;;17.36;44.67
78123;BME280;67376;44.802;10.332;2023-01-28T10:59:00;101455.81;;;17.37;44.87
78123;BME280;67376;44.802;10.332;2023-01-28T11:01:47;101452.44;;;17.28;42.58
78123;BME280;67376;44.802;10.332;2023-01-28T11:05:18;101445.97;;;16.95;43.61
78123;BME280;67376;44.802;10.332;2023-01-28T11:07:45;101443.28;;;16.95;42.84
78123;BME280;67376;44.802;10.332;2023-01-28T11:10:34;101447.00;;;16.94;43.62
78123;BME280;67376;44.802;10.332;2023-01-28T11:13:02;101445.16;;;16.94;43.98
78123;BME280;67376;44.802;10.332;2023-01-28T11:15:27;101444.13;;;16.95;44.47
78123;BME280;67376;44.802;10.332;2023-01-28T11:18:04;101441.03;;;16.98;44.25
78123;BME280;67376;44.802;10.332;2023-01-28T11:20:37;101435.59;;;16.92;43.46
78123;BME280;67376;44.802;10.332;2023-01-28T11:24:15;101432.72;;;16.29;42.26
78123;BME280;67376;44.802;10.332;2023-01-28T11:26:47;101431.56;;;16.17;43.34
78123;BME280;67376;44.802;10.332;2023-01-28T11:29:33;101427.53;;;16.28;42.57
78123;BME280;67376;44.802;10.332;2023-01-28T11:34:54;101420.09;;;16.08;44.56
78123;BME280;67376;44.802;10.332;2023-01-28T11:37:22;101415.38;;;15.96;45.50
78123;BME280;67376;44.802;10.332;2023-01-28T11:40:16;101422.06;;;16.42;44.04
78123;BME280;67376;44.802;10.332;2023-01-28T11:42:45;101426.19;;;16.38;43.73
78123;BME280;67376;44.802;10.332;2023-01-28T11:45:31;101426.81;;;16.40;44.72
78123;BME280;67376;44.802;10.332;2023-01-28T11:48:25;101415.41;;;16.38;44.11
78123;BME280;67376;44.802;10.332;2023-01-28T11:57:10;101399.69;;;16.42;44.33
78123;BME280;67376;44.802;10.332;2023-01-28T12:21:05;101366.38;;;16.49;44.98
78123;BME280;67376;44.802;10.332;2023-01-28T12:24:37;101359.13;;;16.50;45.13
78123;BME280;67376;44.802;10.332;2023-01-28T12:29:45;101350.00;;;16.51;45.17
78123;BME280;67376;44.802;10.332;2023-01-28T12:35:17;101355.19;;;16.52;45.40
78123;BME280;67376;44.802;10.332;2023-01-28T12:37:48;101351.47;;;16.54;45.55
78123;BME280;67376;44.802;10.332;2023-01-28T12:43:04;101353.16;;;16.55;45.01
78123;BME280;67376;44.802;10.332;2023-01-28T12:45:38;101351.47;;;16.54;45.58
78123;BME280;67376;44.802;10.332;2023-01-28T12:48:22;101344.88;;;16.56;45.30
78123;BME280;67376;44.802;10.332;2023-01-28T12:51:01;101347.38;;;16.58;45.83
78123;BME280;67376;44.802;10.332;2023-01-28T12:53:44;101348.19;;;16.58;45.57
78123;BME280;67376;44.802;10.332;2023-01-28T12:56:18;101328.88;;;16.55;46.33
78123;BME280;67376;44.802;10.332;2023-01-28T12:58:52;101351.91;;;16.57;46.13
78123;BME280;67376;44.802;10.332;2023-01-28T13:01:26;101338.06;;;16.60;45.97
78123;BME280;67376;44.802;10.332;2023-01-28T13:04:09;101338.69;;;16.62;45.65
78123;BME280;67376;44.802;10.332;2023-01-28T13:06:49;101342.22;;;16.63;45.91
78123;BME280;67376;44.802;10.332;2023-01-28T13:09:19;101344.75;;;16.64;45.71
78123;BME280;67376;44.802;10.332;2023-01-28T13:11:49;101338.13;;;16.67;45.82
78123;BME280;67376;44.802;10.332;2023-01-28T13:14:16;101330.59;;;16.62;46.04
78123;BME280;67376;44.802;10.332;2023-01-28T13:16:42;101328.06;;;16.54;46.06
78123;BME280;67376;44.802;10.332;2023-01-28T13:19:22;101333.63;;;16.52;46.37
78123;BME280;67376;44.802;10.332;2023-01-28T13:21:49;101348.59;;;16.55;46.29
78123;BME280;67376;44.802;10.332;2023-01-28T13:26:45;101338.00;;;16.75;46.11
78123;BME280;67376;44.802;10.332;2023-01-28T13:32:34;101333.13;;;18.20;42.48
78123;BME280;67376;44.802;10.332;2023-01-28T13:35:05;101330.63;;;18.19;42.45
78123;BME280;67376;44.802;10.332;2023-01-28T13:37:35;101325.22;;;18.19;41.27
78123;BME280;67376;44.802;10.332;2023-01-28T13:40:25;101333.75;;;18.22;41.41
78123;BME280;67376;44.802;10.332;2023-01-28T13:43:00;101338.75;;;18.25;42.11
78123;BME280;67376;44.802;10.332;2023-01-28T13:45:26;101340.81;;;18.23;41.46
78123;BME280;67376;44.802;10.332;2023-01-28T13:47:58;101341.44;;;18.25;41.85
78123;BME280;67376;44.802;10.332;2023-01-28T13:50:32;101344.97;;;18.26;41.76
78123;BME280;67376;44.802;10.332;2023-01-28T13:53:06;101342.50;;;18.24;41.70
78123;BME280;67376;44.802;10.332;2023-01-28T13:55:45;101348.53;;;18.26;41.31
78123;BME280;67376;44.802;10.332;2023-01-28T14:01:27;101357.25;;;18.28;41.44
78123;BME280;67376;44.802;10.332;2023-01-28T14:16:32;101348.72;;;18.25;41.83
78123;BME280;67376;44.802;10.332;2023-01-28T14:19:01;101356.84;;;18.25;41.22
78123;BME280;67376;44.802;10.332;2023-01-28T14:21:27;101359.75;;;18.23;41.72
78123;BME280;67376;44.802;10.332;2023-01-28T14:23:56;101364.31;;;18.23;41.71
78123;BME280;67376;44.802;10.332;2023-01-28T14:31:37;101369.72;;;18.23;41.80
78123;BME280;67376;44.802;10.332;2023-01-28T14:36:43;101369.94;;;18.21;41.51
78123;BME280;67376;44.802;10.332;2023-01-28T14:39:24;101385.94;;;18.23;42.13
78123;BME280;67376;44.802;10.332;2023-01-28T14:41:51;101374.91;;;18.24;42.07
78123;BME280;67376;44.802;10.332;2023-01-28T14:44:26;101378.25;;;18.26;42.14
78123;BME280;67376;44.802;10.332;2023-01-28T14:47:37;101385.31;;;18.27;42.02
78123;BME280;67376;44.802;10.332;2023-01-28T14:55:02;101382.22;;;18.30;41.75
78123;BME280;67376;44.802;10.332;2023-01-28T14:57:40;101386.56;;;18.31;41.97
78123;BME280;67376;44.802;10.332;2023-01-28T15:00:22;101389.69;;;18.35;41.70
78123;BME280;67376;44.802;10.332;2023-01-28T15:02:48;101377.84;;;18.36;41.20
78123;BME280;67376;44.802;10.332;2023-01-28T15:05:18;101388.44;;;18.37;41.74
78123;BME280;67376;44.802;10.332;2023-01-28T15:07:48;101390.94;;;18.39;41.85
78123;BME280;67376;44.802;10.332;2023-01-28T15:10:25;101399.69;;;18.41;41.61
78123;BME280;67376;44.802;10.332;2023-01-28T15:12:57;101395.94;;;18.42;41.75
78123;BME280;67376;44.802;10.332;2023-01-28T15:15:33;101400.31;;;18.43;41.54
78123;BME280;67376;44.802;10.332;2023-01-28T15:18:01;101402.81;;;18.44;41.49
78123;BME280;67376;44.802;10.332;2023-01-28T15:20:26;101399.28;;;18.44;41.58
78123;BME280;67376;44.802;10.332;2023-01-28T15:22:52;101397.41;;;18.44;41.94
78123;BME280;67376;44.802;10.332;2023-01-28T15:25:20;101405.31;;;18.46;41.58
78123;BME280;67376;44.802;10.332;2023-01-28T15:27:47;101388.88;;;18.34;41.21
78123;BME280;67376;44.802;10.332;2023-01-28T15:30:23;101397.41;;;18.44;41.41
78123;BME280;67376;44.802;10.332;2023-01-28T15:33:19;101401.78;;;18.45;41.81
78123;BME280;67376;44.802;10.332;2023-01-28T15:35:49;101404.47;;;18.45;42.03
78123;BME280;67376;44.802;10.332;2023-01-28T15:38:16;101410.91;;;18.51;42.08
78123;BME280;67376;44.802;10.332;2023-01-28T15:40:48;101413.84;;;18.69;41.93
78123;BME280;67376;44.802;10.332;2023-01-28T15:43:30;101416.09;;;18.59;42.18
78123;BME280;67376;44.802;10.332;2023-01-28T15:45:57;101417.56;;;18.55;42.34
78123;BME280;67376;44.802;10.332;2023-01-28T15:48:33;101424.00;;;18.54;41.92
78123;BME280;67376;44.802;10.332;2023-01-28T15:51:05;101420.47;;;18.54;41.40
78123;BME280;67376;44.802;10.332;2023-01-28T15:53:42;101427.97;;;18.52;42.09
78123;BME280;67376;44.802;10.332;2023-01-28T15:56:11;101427.13;;;18.51;42.17
78123;BME280;67376;44.802;10.332;2023-01-28T15:58:38;101420.69;;;18.52;41.86
78123;BME280;67376;44.802;10.332;2023-01-28T16:03:35;101423.19;;;18.47;41.61
78123;BME280;67376;44.802;10.332;2023-01-28T16:06:07;101432.75;;;18.49;41.26
78123;BME280;67376;44.802;10.332;2023-01-28T16:08:55;101427.56;;;18.48;41.07
78123;BME280;67376;44.802;10.332;2023-01-28T16:11:37;101435.69;;;18.48;40.71
78123;BME280;67376;44.802;10.332;2023-01-28T16:14:28;101439.44;;;18.47;40.16
78123;BME280;67376;44.802;10.332;2023-01-28T16:16:55;101436.09;;;18.45;40.24
78123;BME280;67376;44.802;10.332;2023-01-28T16:19:36;101440.66;;;18.44;39.88
78123;BME280;67376;44.802;10.332;2023-01-28T16:22:03;101446.28;;;18.43;39.39
78123;BME280;67376;44.802;10.332;2023-01-28T16:24:31;101441.91;;;18.42;39.94
78123;BME280;67376;44.802;10.332;2023-01-28T16:27:04;101443.78;;;18.41;39.33
78123;BME280;67376;44.802;10.332;2023-01-28T16:29:31;101440.25;;;18.41;39.63
78123;BME280;67376;44.802;10.332;2023-01-28T16:31:57;101446.69;;;18.40;38.99
78123;BME280;67376;44.802;10.332;2023-01-28T16:34:28;101449.59;;;18.38;39.25
78123;BME280;67376;44.802;10.332;2023-01-28T16:36:59;101447.94;;;18.37;38.47
78123;BME280;67376;44.802;10.332;2023-01-28T16:39:25;101441.69;;;18.30;38.38
78123;BME280;67376;44.802;10.332;2023-01-28T16:41:51;101452.72;;;18.35;38.91
78123;BME280;67376;44.802;10.332;2023-01-28T16:44:17;101459.16;;;18.34;39.36
78123;BME280;67376;44.802;10.332;2023-01-28T16:46:43;101461.03;;;18.34;38.90
78123;BME280;67376;44.802;10.332;2023-01-28T16:49:09;101456.66;;;18.33;38.44
78123;BME280;67376;44.802;10.332;2023-01-28T16:51:36;101459.56;;;18.31;38.43
78123;BME280;67376;44.802;10.332;2023-01-28T16:54:03;101464.13;;;18.31;37.62
78123;BME280;67376;44.802;10.332;2023-01-28T16:56:29;101467.03;;;18.29;38.06
78123;BME280;67376;44.802;10.332;2023-01-28T16:58:55;101457.25;;;18.22;37.59
78123;BME280;67376;44.802;10.332;2023-01-28T17:01:21;101463.72;;;18.27;38.11
78123;BME280;67376;44.802;10.332;2023-01-28T17:03:47;101463.06;;;18.25;37.69
78123;BME280;67376;44.802;10.332;2023-01-28T17:06:15;101462.84;;;18.20;37.54
78123;BME280;67376;44.802;10.332;2023-01-28T17:08:41;101472.22;;;18.24;38.25
78123;BME280;67376;44.802;10.332;2023-01-28T17:11:07;101474.94;;;18.24;38.00
78123;BME280;67376;44.802;10.332;2023-01-28T17:13:33;101469.94;;;18.21;37.72
78123;BME280;67376;44.802;10.332;2023-01-28T17:16:02;101478.03;;;18.21;38.64
78123;BME280;67376;44.802;10.332;2023-01-28T17:18:28;101482.81;;;18.19;38.09
78123;BME280;67376;44.802;10.332;2023-01-28T17:20:53;101486.34;;;18.20;37.84
78123;BME280;67376;44.802;10.332;2023-01-28T17:23:19;101482.38;;;18.15;37.09
78123;BME280;67376;44.802;10.332;2023-01-28T17:25:48;101490.28;;;18.17;37.08
78123;BME280;67376;44.802;10.332;2023-01-28T17:28:13;101491.31;;;18.16;37.49
78123;BME280;67376;44.802;10.332;2023-01-28T17:30:40;101482.56;;;18.07;37.31
78123;BME280;67376;44.802;10.332;2023-01-28T17:33:06;101504.19;;;18.14;37.37
78123;BME280;67376;44.802;10.332;2023-01-28T17:35:32;101507.09;;;18.12;37.02
78123;BME280;67376;44.802;10.332;2023-01-28T17:38:02;101503.13;;;18.08;36.73
78123;BME280;67376;44.802;10.332;2023-01-28T17:40:29;101515.41;;;18.11;36.51
78123;BME280;67376;44.802;10.332;2023-01-28T17:42:55;101519.63;;;18.27;39.62
78123;BME280;67376;44.802;10.332;2023-01-28T17:45:20;101525.63;;;18.15;36.43
78123;BME280;67376;44.802;10.332;2023-01-28T17:47:46;101520.19;;;18.09;36.88
78123;BME280;67376;44.802;10.332;2023-01-28T17:50:12;101531.00;;;18.09;36.46
78123;BME280;67376;44.802;10.332;2023-01-28T17:52:39;101530.38;;;18.07;36.07
78123;BME280;67376;44.802;10.332;2023-01-28T17:55:06;101532.22;;;18.06;36.23
78123;BME280;67376;44.802;10.332;2023-01-28T17:57:32;101529.28;;;18.01;36.55
78123;BME280;67376;44.802;10.332;2023-01-28T17:59:57;101537.00;;;18.04;36.09
78123;BME280;67376;44.802;10.332;2023-01-28T18:02:22;101543.63;;;18.02;36.33
78123;BME280;67376;44.802;10.332;2023-01-28T18:04:48;101535.94;;;17.99;35.76
78123;BME280;67376;44.802;10.332;2023-01-28T18:07:13;101541.53;;;17.97;36.46
78123;BME280;67376;44.802;10.332;2023-01-28T18:09:40;101552.16;;;17.99;36.47
78123;BME280;67376;44.802;10.332;2023-01-28T18:12:07;101539.03;;;17.89;36.07
78123;BME280;67376;44.802;10.332;2023-01-28T18:14:33;101555.03;;;17.97;36.14
78123;BME280;67376;44.802;10.332;2023-01-28T18:16:59;101559.63;;;17.97;36.21
78123;BME280;67376;44.802;10.332;2023-01-28T18:19:25;101554.63;;;17.94;35.84
78123;BME280;67376;44.802;10.332;2023-01-28T18:21:50;101568.94;;;17.94;35.58
78123;BME280;67376;44.802;10.332;2023-01-28T18:24:16;101557.50;;;17.92;35.73
78123;BME280;67376;44.802;10.332;2023-01-28T18:26:42;101572.88;;;17.92;35.55
78123;BME280;67376;44.802;10.332;2023-01-28T18:29:08;101565.84;;;17.91;35.51
78123;BME280;67376;44.802;10.332;2023-01-28T18:31:33;101562.72;;;17.87;35.52
78123;BME280;67376;44.802;10.332;2023-01-28T18:33:59;101576.84;;;17.89;36.04
78123;BME280;67376;44.802;10.332;2023-01-28T18:36:24;101572.47;;;17.88;35.98
78123;BME280;67376;44.802;10.332;2023-01-28T18:38:50;101572.69;;;17.87;35.53
78123;BME280;67376;44.802;10.332;2023-01-28T18:41:15;101578.09;;;17.87;35.15
78123;BME280;67376;44.802;10.332;2023-01-28T18:43:41;101583.69;;;17.85;35.41
78123;BME280;67376;44.802;10.332;2023-01-28T18:46:15;101581.38;;;17.82;35.88
78123;BME280;67376;44.802;10.332;2023-01-28T18:48:41;101586.78;;;17.82;35.33
78123;BME280;67376;44.802;10.332;2023-01-28T18:51:09;101581.38;;;17.82;35.23
78123;BME280;67376;44.802;10.332;2023-01-28T18:53:35;101592.19;;;17.82;35.49
78123;BME280;67376;44.802;10.332;2023-01-28T18:56:05;101586.97;;;17.80;35.37
78123;BME280;67376;44.802;10.332;2023-01-28T18:58:31;101591.53;;;17.80;35.20
78123;BME280;67376;44.802;10.332;2023-01-28T19:00:57;101592.97;;;17.76;35.16
78123;BME280;67376;44.802;10.332;2023-01-28T19:03:22;101591.06;;;17.70;34.71
78123;BME280;67376;44.802;10.332;2023-01-28T19:05:48;101589.78;;;17.66;35.26
78123;BME280;67376;44.802;10.332;2023-01-28T19:08:13;101593.81;;;17.76;35.08
78123;BME280;67376;44.802;10.332;2023-01-28T19:10:39;101593.41;;;17.79;35.21
78123;BME280;67376;44.802;10.332;2023-01-28T19:13:04;101599.25;;;17.83;35.89
78123;BME280;67376;44.802;10.332;2023-01-28T19:15:30;101607.59;;;17.88;37.41
78123;BME280;67376;44.802;10.332;2023-01-28T19:17:55;101606.56;;;17.89;37.00
78123;BME280;67376;44.802;10.332;2023-01-28T19:20:21;101609.47;;;17.88;37.49
78123;BME280;67376;44.802;10.332;2023-01-28T19:22:46;101613.19;;;17.87;37.14
78123;BME280;67376;44.802;10.332;2023-01-28T19:25:12;101610.31;;;17.95;37.69
78123;BME280;67376;44.802;10.332;2023-01-28T19:27:37;101614.72;;;18.02;37.95
78123;BME280;67376;44.802;10.332;2023-01-28T19:30:03;101621.59;;;18.05;37.81
78123;BME280;67376;44.802;10.332;2023-01-28T19:32:28;101611.44;;;18.07;37.44
78123;BME280;67376;44.802;10.332;2023-01-28T19:34:54;101614.75;;;18.09;37.30
78123;BME280;67376;44.802;10.332;2023-01-28T19:37:22;101624.34;;;18.11;37.43
78123;BME280;67376;44.802;10.332;2023-01-28T19:39:48;101623.16;;;18.21;37.39
78123;BME280;67376;44.802;10.332;2023-01-28T19:42:13;101627.28;;;18.17;37.58
78123;BME280;67376;44.802;10.332;2023-01-28T19:44:39;101628.31;;;18.15;37.80
78123;BME280;67376;44.802;10.332;2023-01-28T19:47:04;101628.31;;;18.15;38.32
78123;BME280;67376;44.802;10.332;2023-01-28T19:49:31;101633.31;;;18.19;37.41
78123;BME280;67376;44.802;10.332;2023-01-28T19:51:57;101633.75;;;18.22;39.07
78123;BME280;67376;44.802;10.332;2023-01-28T19:54:23;101640.84;;;18.23;38.78
78123;BME280;67376;44.802;10.332;2023-01-28T19:56:48;101639.59;;;18.26;40.02
78123;BME280;67376;44.802;10.332;2023-01-28T19:59:13;101644.19;;;18.25;39.28
78123;BME280;67376;44.802;10.332;2023-01-28T20:01:39;101646.88;;;18.25;38.82
78123;BME280;67376;44.802;10.332;2023-01-28T20:04:05;101643.78;;;18.28;39.37
78123;BME280;67376;44.802;10.332;2023-01-28T20:06:31;101643.78;;;18.28;39.16
78123;BME280;67376;44.802;10.332;2023-01-28T20:09:03;101647.13;;;18.30;39.28
78123;BME280;67376;44.802;10.332;2023-01-28T20:11:30;101645.66;;;18.28;39.72
78123;BME280;67376;44.802;10.332;2023-01-28T20:13:55;101649.00;;;18.30;39.54
78123;BME280;67376;44.802;10.332;2023-01-28T20:16:26;101649.00;;;18.30;39.81
78123;BME280;67376;44.802;10.332;2023-01-28T20:18:55;101649.88;;;18.37;39.75
78123;BME280;67376;44.802;10.332;2023-01-28T20:21:21;101661.31;;;18.39;40.15
78123;BME280;67376;44.802;10.332;2023-01-28T20:23:48;101650.06;;;18.35;39.81
78123;BME280;67376;44.802;10.332;2023-01-28T20:26:15;101668.22;;;18.48;39.71
78123;BME280;67376;44.802;10.332;2023-01-28T20:28:40;101668.41;;;18.46;39.51
78123;BME280;67376;44.802;10.332;2023-01-28T20:31:07;101668.00;;;18.43;39.53
